Time;durP1;ratioP1;P1;durP2;ratioP2;P2;SDS_P1;SDS_P2;PMS_P1;PMS_P2;Temp;Humidity;BMP_temperature;BMP_pressure;BME280_temperature;BME280_humidity;BME280_pressure;Samples;Min_cycle;Max_cycle;Signal;HPM_P1;HPM_P2
2020/12/08 00:02:18;;;;;;;10.57;5.63;;;5.20;99.90;;;;;;5035280;28;20224;-75
2020/12/08 00:04:44;;;;;;;7.95;4.38;;;5.30;99.90;;;;;;5034966;28;20208;-75
2020/12/08 00:07:11;;;;;;;9.32;4.72;;;5.30;99.90;;;;;;5035391;28;20536;-74
2020/12/08 00:09:38;;;;;;;13.85;4.95;;;5.40;99.90;;;;;;5035424;28;20208;-74
2020/12/08 00:12:04;;;;;;;10.68;5.22;;;5.40;99.90;;;;;;5034957;28;20676;-74
2020/12/08 00:14:31;;;;;;;11.30;5.82;;;5.40;99.90;;;;;;5035066;28;20227;-74
2020/12/08 00:16:58;;;;;;;11.88;5.75;;;5.20;99.90;;;;;;5034976;28;20192;-75
2020/12/08 00:19:25;;;;;;;10.55;5.85;;;5.20;99.90;;;;;;5032228;28;20200;-76
2020/12/08 00:21:51;;;;;;;9.13;5.30;;;5.30;99.90;;;;;;5035115;28;20218;-76
2020/12/08 00:24:17;;;;;;;11.52;5.20;;;5.30;99.90;;;;;;5035243;28;20279;-77
2020/12/08 00:26:43;;;;;;;13.23;5.93;;;5.30;99.90;;;;;;5034947;28;20200;-75
2020/12/08 00:29:10;;;;;;;11.27;5.95;;;5.30;99.90;;;;;;5034799;28;20196;-74
2020/12/08 00:31:37;;;;;;;10.40;5.47;;;5.40;99.90;;;;;;5034690;28;20220;-73
2020/12/08 00:34:06;;;;;;;11.75;6.53;;;5.40;99.90;;;;;;5034651;28;20247;-73
2020/12/08 00:36:32;;;;;;;13.07;6.75;;;5.30;99.90;;;;;;5035015;28;20196;-75
2020/12/08 00:38:58;;;;;;;11.05;5.25;;;5.30;99.90;;;;;;5034799;28;20200;-74
2020/12/08 00:41:25;;;;;;;12.75;5.95;;;5.30;99.90;;;;;;5031989;28;20212;-72
2020/12/08 00:43:52;;;;;;;8.90;5.57;;;5.30;99.90;;;;;;5033706;28;20642;-74
2020/12/08 00:46:19;;;;;;;10.43;5.43;;;5.40;99.90;;;;;;5034309;28;20674;-74
2020/12/08 00:48:46;;;;;;;8.80;5.22;;;5.50;99.90;;;;;;5031958;28;20242;-72
2020/12/08 00:51:14;;;;;;;9.27;5.07;;;5.50;99.90;;;;;;5034576;28;20224;-74
2020/12/08 00:53:40;;;;;;;11.43;4.90;;;5.50;99.90;;;;;;5034416;28;20211;-73
2020/12/08 00:56:11;;;;;;;10.15;6.22;;;5.50;99.90;;;;;;5034226;28;20204;-73
2020/12/08 00:58:37;;;;;;;12.75;5.82;;;5.50;99.90;;;;;;5034308;28;20686;-74
2020/12/08 01:01:04;;;;;;;11.43;5.97;;;5.50;99.90;;;;;;5034049;28;20550;-75
2020/12/08 01:03:31;;;;;;;12.55;6.22;;;5.40;99.90;;;;;;5034414;28;20200;-75
2020/12/08 01:05:58;;;;;;;13.95;7.03;;;5.30;99.90;;;;;;5035414;28;20199;-74
2020/12/08 01:08:25;;;;;;;10.30;5.40;;;5.20;99.90;;;;;;5035827;28;20200;-73
2020/12/08 01:10:53;;;;;;;16.08;6.60;;;5.10;99.90;;;;;;5035823;28;20613;-73
2020/12/08 01:13:19;;;;;;;12.13;6.45;;;5.10;99.90;;;;;;5036056;28;20232;-73
2020/12/08 01:15:46;;;;;;;12.73;6.35;;;5.10;99.90;;;;;;5035043;28;20204;-73
2020/12/08 01:18:12;;;;;;;10.23;5.05;;;5.10;99.90;;;;;;5035273;28;20643;-73
2020/12/08 01:20:38;;;;;;;13.32;6.72;;;5.10;99.90;;;;;;5035376;28;20202;-73
2020/12/08 01:23:05;;;;;;;10.95;5.72;;;5.10;99.90;;;;;;5035752;28;20320;-73
2020/12/08 01:25:32;;;;;;;12.00;6.93;;;5.10;99.90;;;;;;5035160;28;20662;-74
2020/12/08 01:27:59;;;;;;;9.98;5.75;;;5.10;99.90;;;;;;5034897;28;20262;-73
2020/12/08 01:30:25;;;;;;;15.07;5.80;;;5.00;99.90;;;;;;5034768;28;20220;-73
2020/12/08 01:32:53;;;;;;;16.77;7.20;;;5.10;99.90;;;;;;5035323;28;20225;-73
2020/12/08 01:35:20;;;;;;;14.82;6.78;;;5.10;99.90;;;;;;5035151;28;20204;-73
2020/12/08 01:37:46;;;;;;;12.98;5.75;;;5.20;99.90;;;;;;5035355;28;20211;-74
2020/12/08 01:40:13;;;;;;;12.95;6.55;;;5.30;99.90;;;;;;5035325;28;20206;-74
2020/12/08 01:42:40;;;;;;;10.43;5.60;;;5.30;99.90;;;;;;5035302;28;20228;-73
2020/12/08 01:45:07;;;;;;;12.20;6.68;;;5.20;99.90;;;;;;5034814;28;20204;-75
2020/12/08 01:47:34;;;;;;;13.50;6.47;;;5.20;99.90;;;;;;5034984;28;20219;-73
2020/12/08 01:50:01;;;;;;;13.05;6.97;;;5.10;99.90;;;;;;5034753;28;20658;-73
2020/12/08 01:52:28;;;;;;;15.75;6.35;;;5.10;99.90;;;;;;5034500;28;20220;-73
2020/12/08 01:54:57;;;;;;;12.75;6.90;;;5.00;99.90;;;;;;5034734;28;20306;-73
2020/12/08 01:57:24;;;;;;;14.07;6.70;;;4.90;99.90;;;;;;5034946;28;20235;-73
2020/12/08 01:59:51;;;;;;;15.40;6.05;;;5.00;99.90;;;;;;5034574;28;20204;-73
2020/12/08 02:02:17;;;;;;;18.15;6.75;;;4.90;99.90;;;;;;5034792;28;20220;-73
2020/12/08 02:04:43;;;;;;;12.10;6.07;;;5.00;99.90;;;;;;5034588;28;20204;-77
2020/12/08 02:07:10;;;;;;;16.55;6.65;;;5.00;99.90;;;;;;5034942;28;20246;-75
2020/12/08 02:09:36;;;;;;;12.60;6.25;;;5.00;99.90;;;;;;5034834;28;20200;-75
2020/12/08 02:12:03;;;;;;;12.15;6.40;;;5.10;99.90;;;;;;5034246;28;20243;-75
2020/12/08 02:14:29;;;;;;;13.30;6.90;;;5.10;99.90;;;;;;5034719;28;20211;-77
2020/12/08 02:16:57;;;;;;;13.40;6.70;;;5.00;99.90;;;;;;5034503;28;20206;-77
2020/12/08 02:19:23;;;;;;;15.32;6.55;;;4.90;99.90;;;;;;5034544;28;20208;-76
2020/12/08 02:21:50;;;;;;;12.10;6.85;;;4.90;99.90;;;;;;5034534;28;20220;-76
2020/12/08 02:24:18;;;;;;;11.43;6.13;;;4.90;99.90;;;;;;5034265;28;20200;-76
2020/12/08 02:26:45;;;;;;;12.60;5.93;;;4.90;99.90;;;;;;5034064;28;20587;-77
2020/12/08 02:29:11;;;;;;;14.18;7.18;;;4.90;99.90;;;;;;5034030;28;20208;-77
2020/12/08 02:31:38;;;;;;;17.70;8.27;;;5.00;99.90;;;;;;5033889;28;20236;-77
2020/12/08 02:34:06;;;;;;;15.80;6.97;;;5.00;99.90;;;;;;5034751;28;20242;-74
2020/12/08 02:36:33;;;;;;;16.02;6.45;;;4.90;99.90;;;;;;5034174;28;20250;-72
2020/12/08 02:39:00;;;;;;;13.00;5.85;;;4.80;99.90;;;;;;5034315;28;20642;-77
2020/12/08 02:41:27;;;;;;;10.77;6.22;;;4.80;99.90;;;;;;5032791;28;20219;-76
2020/12/08 02:43:53;;;;;;;14.65;6.63;;;4.80;99.90;;;;;;5032827;28;20202;-76
2020/12/08 02:46:20;;;;;;;12.68;6.70;;;4.70;99.90;;;;;;5032187;28;20643;-77
2020/12/08 02:48:47;;;;;;;11.88;5.88;;;4.70;99.90;;;;;;5032491;28;20250;-74
2020/12/08 02:51:17;;;;;;;14.70;6.80;;;4.60;99.90;;;;;;5032182;28;20216;-75
2020/12/08 02:53:44;;;;;;;17.88;7.25;;;4.60;99.90;;;;;;5013993;28;20213;-74
2020/12/08 02:56:11;;;;;;;18.05;7.00;;;4.60;99.90;;;;;;5013957;28;20219;-74
2020/12/08 02:58:38;;;;;;;15.93;7.68;;;4.60;99.90;;;;;;5014041;28;20215;-72
2020/12/08 03:01:05;;;;;;;15.75;6.90;;;4.60;99.90;;;;;;5014131;28;20201;-72
2020/12/08 03:03:31;;;;;;;16.92;6.72;;;4.60;99.90;;;;;;5014530;28;20208;-76
2020/12/08 03:05:57;;;;;;;17.00;7.10;;;4.60;99.90;;;;;;5013666;28;20287;-76
2020/12/08 03:08:24;;;;;;;18.55;7.22;;;4.70;99.90;;;;;;5018064;28;20202;-74
2020/12/08 03:10:50;;;;;;;15.27;6.20;;;4.80;99.90;;;;;;5032335;28;20216;-73
2020/12/08 03:13:17;;;;;;;17.20;7.38;;;4.90;99.90;;;;;;5032214;28;20587;-74
2020/12/08 03:15:44;;;;;;;15.13;6.40;;;4.90;99.90;;;;;;5031860;28;20192;-74
2020/12/08 03:18:10;;;;;;;12.82;5.95;;;5.00;99.90;;;;;;5032105;28;20601;-74
2020/12/08 03:20:36;;;;;;;15.75;7.85;;;5.00;99.90;;;;;;5032043;28;20196;-71
2020/12/08 03:23:03;;;;;;;13.27;6.97;;;5.00;99.90;;;;;;5033542;28;20250;-72
2020/12/08 03:25:29;;;;;;;15.77;7.32;;;4.90;99.90;;;;;;5033231;28;20211;-72
2020/12/08 03:27:56;;;;;;;12.50;6.70;;;4.90;99.90;;;;;;5033460;28;20658;-72
2020/12/08 03:30:23;;;;;;;14.35;7.45;;;4.80;99.90;;;;;;5033443;28;20211;-73
2020/12/08 03:32:49;;;;;;;13.32;7.13;;;4.80;99.90;;;;;;5033849;28;20234;-72
2020/12/08 03:35:16;;;;;;;13.13;6.53;;;4.70;99.90;;;;;;5033733;28;20204;-72
2020/12/08 03:37:42;;;;;;;13.05;6.45;;;4.60;99.90;;;;;;5033146;28;20200;-72
2020/12/08 03:40:08;;;;;;;14.27;6.30;;;4.60;99.90;;;;;;5033457;28;20210;-72
2020/12/08 03:42:34;;;;;;;13.90;7.68;;;4.60;99.90;;;;;;5033656;28;20319;-72
2020/12/08 03:45:01;;;;;;;16.27;7.60;;;4.50;99.90;;;;;;5033115;28;20204;-72
2020/12/08 03:47:28;;;;;;;14.32;6.63;;;4.50;99.90;;;;;;5033682;28;20230;-72
2020/12/08 03:49:54;;;;;;;16.55;7.05;;;4.60;99.90;;;;;;5033164;28;20562;-72
2020/12/08 03:52:21;;;;;;;13.98;6.35;;;4.50;99.90;;;;;;5033274;28;20232;-72
2020/12/08 03:54:47;;;;;;;13.57;6.15;;;4.50;99.90;;;;;;5033133;28;20211;-73
2020/12/08 03:57:13;;;;;;;15.82;7.30;;;4.50;99.90;;;;;;5033075;28;20204;-72
2020/12/08 03:59:40;;;;;;;17.42;7.20;;;4.50;99.90;;;;;;5033509;28;20303;-73
2020/12/08 04:02:06;;;;;;;18.05;6.85;;;4.50;99.90;;;;;;5033438;28;20220;-72
2020/12/08 04:04:33;;;;;;;18.85;7.43;;;4.50;99.90;;;;;;5032922;28;20208;-73
2020/12/08 04:06:59;;;;;;;16.67;7.05;;;4.50;99.90;;;;;;5033151;28;20293;-72
2020/12/08 04:09:26;;;;;;;14.05;7.45;;;4.50;99.90;;;;;;5033065;28;20208;-72
2020/12/08 04:11:52;;;;;;;14.57;7.22;;;4.50;99.90;;;;;;5032903;28;20235;-72
2020/12/08 04:14:18;;;;;;;18.23;7.82;;;4.50;99.90;;;;;;5033641;28;20542;-72
2020/12/08 04:16:45;;;;;;;15.00;6.85;;;4.40;99.90;;;;;;5033230;28;20214;-73
2020/12/08 04:19:11;;;;;;;13.98;6.60;;;4.30;99.90;;;;;;5033566;28;20208;-72
2020/12/08 04:21:38;;;;;;;17.67;7.15;;;4.30;99.90;;;;;;5036568;28;20221;-72
2020/12/08 04:24:04;;;;;;;17.27;7.63;;;4.30;99.90;;;;;;5036811;28;20206;-72
2020/12/08 04:26:32;;;;;;;15.10;7.07;;;4.30;99.90;;;;;;5036225;28;20543;-72
2020/12/08 04:29:00;;;;;;;13.98;5.85;;;4.20;99.90;;;;;;5036702;28;20199;-72
2020/12/08 04:31:27;;;;;;;15.00;7.00;;;4.30;99.90;;;;;;5035974;28;20238;-72
2020/12/08 04:33:53;;;;;;;15.70;7.20;;;4.30;99.90;;;;;;5036342;28;20204;-71
2020/12/08 04:36:22;;;;;;;10.80;6.25;;;4.20;99.90;;;;;;5036263;28;20550;-72
2020/12/08 04:38:50;;;;;;;15.40;5.70;;;4.20;99.90;;;;;;5036419;28;20211;-72
2020/12/08 04:41:21;;;;;;;14.73;6.82;;;4.10;99.90;;;;;;5036305;28;20203;-72
2020/12/08 04:43:48;;;;;;;14.55;5.90;;;4.20;99.90;;;;;;5036793;28;20189;-72
2020/12/08 04:46:18;;;;;;;13.40;5.00;;;4.10;99.90;;;;;;5035867;28;20200;-72
2020/12/08 04:48:45;;;;;;;13.15;6.80;;;4.10;99.90;;;;;;5036168;28;20612;-72
2020/12/08 04:51:11;;;;;;;16.00;6.53;;;4.10;99.90;;;;;;5036028;28;20223;-72
2020/12/08 04:53:37;;;;;;;11.30;6.97;;;4.10;99.90;;;;;;5036405;28;20648;-72
2020/12/08 04:56:04;;;;;;;18.77;7.20;;;4.10;99.90;;;;;;5035516;28;20206;-72
2020/12/08 04:58:32;;;;;;;12.27;6.22;;;4.10;99.90;;;;;;5035721;28;20303;-72
2020/12/08 05:00:58;;;;;;;15.48;7.47;;;4.10;99.90;;;;;;5035552;28;20200;-73
2020/12/08 05:03:26;;;;;;;15.73;7.35;;;4.10;99.90;;;;;;5035649;28;20255;-72
2020/12/08 05:05:52;;;;;;;12.45;6.30;;;4.20;99.90;;;;;;5035500;28;20338;-73
2020/12/08 05:08:19;;;;;;;14.10;7.32;;;4.30;99.90;;;;;;5035961;28;20303;-72
2020/12/08 05:10:47;;;;;;;20.52;7.72;;;4.30;99.90;;;;;;5035903;28;20682;-72
2020/12/08 05:13:18;;;;;;;17.88;8.20;;;4.30;99.90;;;;;;5035963;28;20318;-72
2020/12/08 05:15:58;;;;;;;17.75;7.25;;;4.30;99.90;;;;;;5035472;28;20235;-72
2020/12/08 05:18:24;;;;;;;13.55;6.93;;;4.40;99.90;;;;;;5035721;28;20212;-72
2020/12/08 05:20:51;;;;;;;15.13;6.95;;;4.40;99.90;;;;;;5035733;28;20226;-72
2020/12/08 05:23:17;;;;;;;13.48;5.60;;;4.40;99.90;;;;;;5035928;28;20220;-72
2020/12/08 05:25:45;;;;;;;19.25;6.18;;;4.30;99.90;;;;;;5035248;28;20296;-72
2020/12/08 05:28:18;;;;;;;11.88;6.85;;;4.00;99.90;;;;;;5035358;28;20208;-72
2020/12/08 05:30:45;;;;;;;16.17;6.60;;;4.00;99.90;;;;;;5034647;28;20259;-73
2020/12/08 05:33:15;;;;;;;17.45;7.53;;;4.00;99.90;;;;;;5035640;28;20223;-72
2020/12/08 05:35:45;;;;;;;17.50;6.85;;;4.00;99.90;;;;;;5034914;28;20659;-72
2020/12/08 05:38:15;;;;;;;17.45;7.13;;;4.00;99.90;;;;;;5034994;28;20208;-73
2020/12/08 05:40:44;;;;;;;17.95;6.65;;;4.00;99.90;;;;;;5035728;28;20208;-72
2020/12/08 05:43:10;;;;;;;13.80;6.43;;;4.10;99.90;;;;;;5035255;28;20220;-72
2020/12/08 05:45:38;;;;;;;13.20;6.07;;;4.10;99.90;;;;;;5034599;28;20208;-72
2020/12/08 05:48:04;;;;;;;12.00;5.75;;;4.20;99.90;;;;;;5035203;28;20208;-72
2020/12/08 05:50:30;;;;;;;15.40;6.78;;;4.10;99.90;;;;;;5035082;28;20211;-73
2020/12/08 05:52:59;;;;;;;16.83;6.32;;;3.90;99.90;;;;;;5034817;28;20224;-72
2020/12/08 05:55:29;;;;;;;18.15;8.15;;;4.00;99.90;;;;;;5034530;28;20749;-72
2020/12/08 05:58:05;;;;;;;14.23;5.68;;;4.10;99.90;;;;;;5034902;28;20231;-72
2020/12/08 06:00:33;;;;;;;16.23;6.53;;;4.20;99.90;;;;;;5034915;28;20204;-72
2020/12/08 06:03:10;;;;;;;16.75;7.60;;;4.20;99.90;;;;;;5034313;28;20278;-72
2020/12/08 06:05:37;;;;;;;14.15;6.45;;;3.90;99.90;;;;;;5034451;28;20215;-73
2020/12/08 06:08:15;;;;;;;12.38;7.47;;;3.70;99.90;;;;;;5034614;28;20205;-72
2020/12/08 06:10:46;;;;;;;16.73;7.43;;;3.60;99.90;;;;;;5034701;28;20218;-72
2020/12/08 06:13:23;;;;;;;13.75;7.18;;;3.60;99.90;;;;;;5034998;28;20232;-72
2020/12/08 06:15:50;;;;;;;16.55;7.55;;;3.60;99.90;;;;;;5034312;28;20232;-73
2020/12/08 06:18:28;;;;;;;15.85;7.32;;;3.80;99.90;;;;;;5034119;28;20216;-72
2020/12/08 06:20:54;;;;;;;15.68;7.25;;;3.90;99.90;;;;;;5034551;28;20207;-72
2020/12/08 06:23:21;;;;;;;13.70;6.72;;;3.80;99.90;;;;;;5034186;28;20223;-72
2020/12/08 06:25:47;;;;;;;11.02;5.38;;;3.90;99.90;;;;;;5033987;28;20204;-72
2020/12/08 06:28:18;;;;;;;17.50;6.93;;;3.80;99.90;;;;;;5034591;28;20200;-72
2020/12/08 06:30:44;;;;;;;18.33;8.13;;;3.80;99.90;;;;;;5033842;28;20251;-72
2020/12/08 06:33:11;;;;;;;19.35;7.55;;;3.90;99.90;;;;;;5033939;28;20223;-72
2020/12/08 06:35:38;;;;;;;16.88;7.18;;;3.90;99.90;;;;;;5033777;28;20305;-72
2020/12/08 06:38:04;;;;;;;20.20;7.68;;;3.80;99.90;;;;;;5033953;28;20700;-72
2020/12/08 06:40:31;;;;;;;19.10;7.50;;;3.90;99.90;;;;;;5034422;28;20211;-71
2020/12/08 06:42:57;;;;;;;14.35;7.10;;;4.00;99.90;;;;;;5032959;28;20220;-72
2020/12/08 06:45:25;;;;;;;15.40;6.68;;;4.10;99.90;;;;;;5034398;28;20554;-72
2020/12/08 06:47:52;;;;;;;18.48;6.65;;;3.90;99.90;;;;;;5033683;28;20208;-72
2020/12/08 06:50:27;;;;;;;14.15;7.45;;;4.00;99.90;;;;;;5033672;28;20203;-72
2020/12/08 06:52:56;;;;;;;17.17;7.20;;;4.00;99.90;;;;;;5033480;28;20277;-72
2020/12/08 06:55:22;;;;;;;13.48;6.97;;;3.90;99.90;;;;;;5033632;28;20628;-72
2020/12/08 06:57:49;;;;;;;16.20;6.70;;;3.90;99.90;;;;;;5033891;28;20204;-71
2020/12/08 07:00:16;;;;;;;10.95;6.13;;;3.70;99.90;;;;;;5033908;28;20208;-72
2020/12/08 07:02:49;;;;;;;17.52;6.80;;;3.60;99.90;;;;;;5034121;28;20335;-72
2020/12/08 07:05:18;;;;;;;18.70;6.32;;;3.60;99.90;;;;;;5033592;28;20204;-72
2020/12/08 07:07:44;;;;;;;16.60;7.35;;;3.60;99.90;;;;;;5034034;28;20208;-72
2020/12/08 07:10:12;;;;;;;14.40;7.47;;;3.60;99.90;;;;;;5033431;28;20643;-72
2020/12/08 07:12:42;;;;;;;17.30;7.60;;;3.70;99.90;;;;;;5033748;28;20271;-72
2020/12/08 07:15:14;;;;;;;19.08;7.75;;;3.80;99.90;;;;;;5033523;28;20214;-71
2020/12/08 07:17:41;;;;;;;12.73;5.70;;;3.80;99.90;;;;;;5033962;28;20200;-72
2020/12/08 07:20:07;;;;;;;16.73;7.40;;;3.80;99.90;;;;;;5033713;28;20669;-72
2020/12/08 07:22:44;;;;;;;17.33;6.80;;;3.70;99.90;;;;;;5033218;28;20226;-72
2020/12/08 07:25:13;;;;;;;21.60;7.47;;;3.70;99.90;;;;;;5033250;28;20199;-71
2020/12/08 07:27:46;;;;;;;15.18;6.82;;;3.80;99.90;;;;;;5033702;28;20210;-72
2020/12/08 07:30:14;;;;;;;15.73;7.07;;;3.90;99.90;;;;;;5033590;28;20677;-72
2020/12/08 07:32:40;;;;;;;13.07;7.20;;;3.90;99.90;;;;;;5033586;28;20242;-72
2020/12/08 07:35:18;;;;;;;15.85;7.07;;;3.90;99.90;;;;;;5033021;28;20650;-72
2020/12/08 07:37:44;;;;;;;15.10;6.68;;;3.80;99.90;;;;;;5033566;28;20566;-72
2020/12/08 07:40:12;;;;;;;12.45;6.38;;;3.90;99.90;;;;;;5033444;28;20204;-72
2020/12/08 07:42:45;;;;;;;17.38;7.78;;;3.90;99.90;;;;;;5033089;28;20695;-72
2020/12/08 07:45:11;;;;;;;12.98;6.68;;;4.00;99.90;;;;;;5033368;28;20199;-72
2020/12/08 07:47:38;;;;;;;21.13;7.57;;;4.00;99.90;;;;;;5033327;28;20200;-72
2020/12/08 07:50:05;;;;;;;14.45;5.97;;;4.00;99.90;;;;;;5033379;28;20201;-72
2020/12/08 07:52:31;;;;;;;14.75;6.70;;;4.00;99.90;;;;;;5033514;28;20232;-72
2020/12/08 07:54:57;;;;;;;14.80;6.93;;;4.00;99.90;;;;;;5036642;28;20206;-72
2020/12/08 07:57:25;;;;;;;19.52;7.40;;;4.10;99.90;;;;;;5037318;28;20204;-72
2020/12/08 07:59:52;;;;;;;13.38;6.70;;;4.10;99.90;;;;;;5037391;28;20248;-72
2020/12/08 08:02:18;;;;;;;15.85;6.78;;;4.10;99.90;;;;;;5037074;28;20255;-72
2020/12/08 08:04:44;;;;;;;12.73;7.00;;;4.00;99.90;;;;;;5037031;28;20234;-72
2020/12/08 08:07:11;;;;;;;15.68;7.57;;;3.90;99.90;;;;;;5037049;28;20544;-72
2020/12/08 08:09:38;;;;;;;11.48;5.57;;;3.60;99.90;;;;;;5037038;28;20207;-72
2020/12/08 08:12:04;;;;;;;17.63;7.78;;;3.60;99.90;;;;;;5036950;28;20232;-72
2020/12/08 08:14:31;;;;;;;19.20;7.78;;;3.60;99.90;;;;;;5036522;28;20305;-73
2020/12/08 08:16:57;;;;;;;16.42;7.25;;;3.70;99.90;;;;;;5036450;28;20553;-72
2020/12/08 08:19:24;;;;;;;17.38;7.28;;;3.80;99.90;;;;;;5036513;28;20295;-72
2020/12/08 08:21:50;;;;;;;16.30;6.93;;;3.70;99.90;;;;;;5036506;28;20216;-72
2020/12/08 08:24:16;;;;;;;13.40;6.60;;;3.50;99.90;;;;;;5036426;28;20214;-72
2020/12/08 08:26:43;;;;;;;15.73;5.78;;;3.40;99.90;;;;;;5036654;28;20593;-72
2020/12/08 08:29:10;;;;;;;18.02;6.90;;;3.40;99.90;;;;;;5036159;28;20214;-72
2020/12/08 08:31:37;;;;;;;20.67;8.80;;;3.50;99.90;;;;;;5036020;28;20224;-72
2020/12/08 08:34:03;;;;;;;20.70;9.50;;;3.70;99.90;;;;;;5036608;28;20204;-72
2020/12/08 08:36:30;;;;;;;18.52;7.38;;;3.60;99.90;;;;;;5036055;28;20675;-72
2020/12/08 08:38:56;;;;;;;19.35;9.43;;;3.50;99.90;;;;;;5036512;28;20208;-72
2020/12/08 08:41:23;;;;;;;17.80;8.20;;;3.70;99.90;;;;;;5036518;28;20214;-71
2020/12/08 08:43:49;;;;;;;15.88;7.32;;;3.80;99.90;;;;;;5035930;28;20214;-72
2020/12/08 08:46:16;;;;;;;19.50;8.48;;;4.00;99.90;;;;;;5036009;28;20204;-72
2020/12/08 08:48:43;;;;;;;23.83;9.15;;;3.90;99.90;;;;;;5036062;28;20200;-72
2020/12/08 08:51:09;;;;;;;22.88;9.05;;;4.10;99.90;;;;;;5035987;28;20315;-72
2020/12/08 08:53:36;;;;;;;19.25;8.88;;;4.20;99.90;;;;;;5036572;28;20204;-72
2020/12/08 08:56:03;;;;;;;14.55;7.60;;;4.30;99.90;;;;;;5035602;28;20208;-72
2020/12/08 08:58:30;;;;;;;18.58;8.13;;;4.20;99.90;;;;;;5035910;28;20206;-72
2020/12/08 09:00:57;;;;;;;17.02;8.00;;;4.10;99.90;;;;;;5035574;28;20211;-72
2020/12/08 09:03:23;;;;;;;13.30;8.30;;;3.90;99.90;;;;;;5035801;28;20694;-72
2020/12/08 09:05:51;;;;;;;20.48;8.30;;;3.90;99.90;;;;;;5034579;28;20208;-72
2020/12/08 09:08:17;;;;;;;21.50;9.25;;;4.00;99.90;;;;;;5036013;28;20242;-72
2020/12/08 09:10:43;;;;;;;16.00;8.80;;;4.10;99.90;;;;;;5035544;28;20207;-72
2020/12/08 09:13:09;;;;;;;13.60;7.32;;;4.20;99.90;;;;;;5035370;28;20717;-72
2020/12/08 09:15:36;;;;;;;12.27;6.72;;;4.30;99.90;;;;;;5035401;28;20291;-72
2020/12/08 09:18:02;;;;;;;15.45;7.75;;;4.40;99.90;;;;;;5035621;28;20370;-72
2020/12/08 09:20:28;;;;;;;17.77;7.25;;;4.30;99.90;;;;;;5035746;28;20204;-72
2020/12/08 09:22:55;;;;;;;22.70;9.15;;;4.40;99.90;;;;;;5035612;28;20702;-72
2020/12/08 09:25:24;;;;;;;18.48;8.20;;;4.20;99.90;;;;;;5034887;28;20208;-72
2020/12/08 09:27:50;;;;;;;19.77;7.05;;;4.10;99.90;;;;;;5035196;28;20204;-72
2020/12/08 09:30:17;;;;;;;20.92;9.10;;;3.90;99.90;;;;;;5035421;28;20591;-72
2020/12/08 09:32:43;;;;;;;14.35;7.40;;;3.80;99.90;;;;;;5035149;28;20238;-72
2020/12/08 09:35:09;;;;;;;15.13;7.50;;;3.80;99.90;;;;;;5034788;28;20717;-72
2020/12/08 09:37:35;;;;;;;10.80;7.00;;;3.70;99.90;;;;;;5035179;28;20204;-73
2020/12/08 09:40:03;;;;;;;20.50;9.30;;;3.70;99.90;;;;;;5033500;28;20200;-72
2020/12/08 09:42:29;;;;;;;16.83;8.10;;;3.70;99.90;;;;;;5031332;28;20217;-72
2020/12/08 09:44:57;;;;;;;18.75;7.82;;;3.60;99.90;;;;;;5034146;28;20212;-73
2020/12/08 09:47:23;;;;;;;18.23;8.65;;;3.50;99.90;;;;;;5035061;28;20646;-73
2020/12/08 09:49:50;;;;;;;19.55;8.55;;;3.60;99.90;;;;;;5035268;28;20205;-73
2020/12/08 09:52:16;;;;;;;21.77;8.57;;;3.50;99.90;;;;;;5035094;28;20319;-72
2020/12/08 09:54:42;;;;;;;18.08;8.85;;;3.50;99.90;;;;;;5034702;28;20619;-73
2020/12/08 09:57:09;;;;;;;16.38;8.52;;;3.60;99.90;;;;;;5034876;28;20208;-73
2020/12/08 09:59:36;;;;;;;20.67;8.55;;;3.50;99.90;;;;;;5034875;28;20214;-73
2020/12/08 10:02:03;;;;;;;23.05;9.68;;;3.60;99.90;;;;;;5034464;28;20220;-72
2020/12/08 10:04:30;;;;;;;23.30;8.68;;;3.80;99.90;;;;;;5034926;28;20206;-73
2020/12/08 10:06:56;;;;;;;17.17;8.23;;;3.80;99.90;;;;;;5034890;28;20204;-73
2020/12/08 10:09:22;;;;;;;13.02;7.95;;;3.70;99.90;;;;;;5034628;28;20215;-73
2020/12/08 10:11:49;;;;;;;15.88;8.30;;;3.80;99.90;;;;;;5034277;28;20234;-73
2020/12/08 10:14:16;;;;;;;17.85;7.93;;;3.80;99.90;;;;;;5034533;28;20200;-72
2020/12/08 10:16:42;;;;;;;19.77;8.93;;;3.80;99.90;;;;;;5034557;28;20546;-72
2020/12/08 10:19:09;;;;;;;15.90;7.60;;;3.80;99.90;;;;;;5034751;28;20204;-72
2020/12/08 10:21:35;;;;;;;18.20;8.98;;;3.80;99.90;;;;;;5034625;28;20315;-73
2020/12/08 10:24:03;;;;;;;18.08;8.73;;;4.00;99.90;;;;;;5034345;28;20282;-73
2020/12/08 10:26:29;;;;;;;15.23;8.90;;;4.00;99.90;;;;;;5034054;28;20208;-73
2020/12/08 10:28:56;;;;;;;14.13;7.65;;;4.10;99.90;;;;;;5034389;28;20207;-72
2020/12/08 10:31:23;;;;;;;19.45;9.05;;;4.30;99.90;;;;;;5033849;28;20227;-72
2020/12/08 10:33:49;;;;;;;16.23;8.48;;;4.40;99.90;;;;;;5034779;28;20207;-72
2020/12/08 10:36:16;;;;;;;20.52;8.40;;;4.30;99.90;;;;;;5033622;28;20200;-72
2020/12/08 10:38:42;;;;;;;19.92;8.45;;;4.30;99.90;;;;;;5034139;28;20212;-72
2020/12/08 10:41:08;;;;;;;19.65;9.25;;;4.20;99.90;;;;;;5034142;28;20554;-72
2020/12/08 10:43:35;;;;;;;19.02;8.80;;;4.10;99.90;;;;;;5034411;28;20204;-72
2020/12/08 10:46:01;;;;;;;15.70;7.88;;;4.00;99.90;;;;;;5033611;28;20222;-71
2020/12/08 10:48:28;;;;;;;17.45;8.45;;;3.90;99.90;;;;;;5034201;28;20295;-72
2020/12/08 10:50:55;;;;;;;20.58;7.82;;;4.00;99.90;;;;;;5033893;28;20208;-72
2020/12/08 10:53:21;;;;;;;19.02;8.48;;;4.00;99.90;;;;;;5033922;28;20247;-72
2020/12/08 10:55:47;;;;;;;19.35;7.22;;;4.10;99.90;;;;;;5033873;28;20542;-72
2020/12/08 10:58:13;;;;;;;16.15;8.02;;;4.10;99.90;;;;;;5034045;28;20211;-72
2020/12/08 11:00:40;;;;;;;20.60;8.75;;;4.20;99.90;;;;;;5034011;28;20204;-72
2020/12/08 11:03:06;;;;;;;19.48;9.48;;;4.40;99.90;;;;;;5033500;28;20226;-73
2020/12/08 11:05:33;;;;;;;18.02;8.65;;;4.50;99.90;;;;;;5033343;28;20218;-72
2020/12/08 11:08:00;;;;;;;19.88;8.43;;;4.70;99.90;;;;;;5033558;28;20208;-72
2020/12/08 11:10:26;;;;;;;15.80;8.15;;;4.60;99.90;;;;;;5033551;28;20262;-72
2020/12/08 11:12:52;;;;;;;16.75;9.05;;;4.50;99.90;;;;;;5033925;28;20228;-73
2020/12/08 11:15:18;;;;;;;17.60;8.00;;;4.40;99.90;;;;;;5033510;28;20200;-73
2020/12/08 11:17:45;;;;;;;13.57;8.60;;;4.50;99.90;;;;;;5033947;28;20208;-73
2020/12/08 11:20:12;;;;;;;17.60;8.43;;;4.50;99.90;;;;;;5033355;28;20587;-72
2020/12/08 11:22:39;;;;;;;17.58;9.02;;;4.70;99.90;;;;;;5033744;28;20215;-72
2020/12/08 11:25:05;;;;;;;21.05;9.40;;;4.60;99.90;;;;;;5033210;28;20214;-72
2020/12/08 11:27:32;;;;;;;17.02;8.27;;;4.60;99.90;;;;;;5033787;28;20203;-72
2020/12/08 11:29:58;;;;;;;20.98;8.27;;;4.50;99.90;;;;;;5037404;28;20670;-72
2020/12/08 11:32:25;;;;;;;18.77;8.43;;;4.50;99.90;;;;;;5037023;28;20227;-73
2020/12/08 11:34:51;;;;;;;16.55;7.82;;;4.40;99.90;;;;;;5037097;28;20655;-73
2020/12/08 11:37:18;;;;;;;15.02;7.65;;;4.40;99.90;;;;;;5037604;28;20588;-72
2020/12/08 11:39:46;;;;;;;18.48;8.82;;;4.60;99.90;;;;;;5037410;28;20204;-72
2020/12/08 11:42:14;;;;;;;17.67;9.45;;;4.70;99.90;;;;;;5037209;28;20246;-72
2020/12/08 11:44:41;;;;;;;28.02;8.60;;;4.60;99.90;;;;;;5037728;28;20203;-72
2020/12/08 11:47:07;;;;;;;15.73;7.68;;;4.60;99.90;;;;;;5037258;28;20200;-72
2020/12/08 11:49:36;;;;;;;19.35;9.15;;;4.60;99.90;;;;;;5037294;28;20214;-72
2020/12/08 11:52:02;;;;;;;19.60;8.07;;;4.70;99.90;;;;;;5036735;28;20689;-72
2020/12/08 11:54:29;;;;;;;20.67;9.73;;;4.80;99.90;;;;;;5037600;28;20665;-71
2020/12/08 11:56:56;;;;;;;16.20;9.23;;;4.90;99.90;;;;;;5037412;28;20238;-72
2020/12/08 11:59:22;;;;;;;15.32;9.02;;;5.10;99.90;;;;;;5037399;28;20234;-73
2020/12/08 12:01:49;;;;;;;17.25;8.70;;;5.10;99.90;;;;;;5036982;28;20220;-72
2020/12/08 12:04:16;;;;;;;18.13;9.75;;;5.20;99.90;;;;;;5036859;28;20286;-72
2020/12/08 12:06:43;;;;;;;18.48;10.07;;;5.30;99.90;;;;;;5036638;28;20204;-72
2020/12/08 12:09:09;;;;;;;18.42;9.70;;;5.30;99.90;;;;;;5036606;28;20689;-72
2020/12/08 12:11:35;;;;;;;16.40;8.90;;;5.40;99.90;;;;;;5036469;28;20232;-72
2020/12/08 12:14:02;;;;;;;19.30;8.23;;;5.50;99.90;;;;;;5036640;28;20214;-72
2020/12/08 12:16:29;;;;;;;18.35;9.20;;;5.70;99.90;;;;;;5036450;28;20208;-72
2020/12/08 12:18:55;;;;;;;14.75;8.00;;;5.80;99.90;;;;;;5036594;28;20291;-72
2020/12/08 12:21:21;;;;;;;18.30;8.57;;;5.80;99.90;;;;;;5036540;28;20201;-72
2020/12/08 12:23:47;;;;;;;14.27;7.47;;;5.80;99.90;;;;;;5036778;28;20204;-72
2020/12/08 12:26:14;;;;;;;14.00;7.72;;;5.90;99.90;;;;;;5036035;28;20211;-72
2020/12/08 12:28:40;;;;;;;12.95;7.65;;;6.00;99.90;;;;;;5036833;28;20204;-72
2020/12/08 12:31:08;;;;;;;14.85;7.63;;;6.10;99.90;;;;;;5036103;28;20212;-72
2020/12/08 12:33:34;;;;;;;10.40;5.60;;;6.20;99.90;;;;;;5036306;28;20677;-73
2020/12/08 12:36:00;;;;;;;11.88;6.15;;;6.10;99.90;;;;;;5036395;28;20200;-72
2020/12/08 12:38:27;;;;;;;12.80;6.68;;;6.10;99.90;;;;;;5037296;28;20299;-72
2020/12/08 12:40:53;;;;;;;18.83;7.30;;;6.00;99.90;;;;;;5034915;28;20215;-73
2020/12/08 12:43:19;;;;;;;15.00;7.75;;;6.00;99.90;;;;;;5035850;28;20216;-72
2020/12/08 12:45:46;;;;;;;15.30;6.13;;;6.10;99.90;;;;;;5035858;28;20660;-72
2020/12/08 12:48:13;;;;;;;15.50;7.28;;;6.20;99.90;;;;;;5036299;28;20206;-73